空港情報

日本の空港の気象及び、管制情報です。
気象情報はより詳細な情報が取得できる「AVIATION WEATER CENTER」 から取得しているため、VATSIMの気象情報と若干のタイムラグが生じることがあります。

VRCのフィールド設定用空港一覧はこちらをご覧ください。

RJCG Sapporo Control

RJCW / Wakkanai

NO RADAR

RADIO

08/26 2200x45

民間 civil

過去5時間に発表されたMETARがありません。

RJER / Rishiri

NO RADAR

REMOTE

25/07 1800x45

民間 civil

過去5時間に発表されたMETARがありません。

RJEB / Monbetsu

NO RADAR

REMOTE

32/14 2000x45

民間 civil

過去5時間に発表されたMETARがありません。

RJCM / Memanbetsu
VMC

NO RADAR

TOWER

36/18 2500x45

民間 civil

9999

270@3KT

30.27

RJCM 152300Z 27003KT 200V340 9999 FEW050 BKN/// 07/M04 Q1025

RJEC / Asahikawa
VMC

NO RADAR

TOWER

34/16 2500x60

民間 civil

9999

180@14KT

30.24

RJEC 152300Z 18014KT 9999 FEW050 BKN/// 08/M04 Q1024

RJCN / Nakashibetsu

NO RADAR

RADIO

08/26 2000x45

民間 civil

過去5時間に発表されたMETARがありません。

RJCK / Kushiro
VMC

NO RADAR

TOWER

17/35 2500x45

民間 civil

9999

160@4KT

30.30

RJCK 152300Z 16004KT 120V210 CAVOK 07/M02 Q1026

RJCO / Sapporo
VMC

RJCO_APP

TOWER

14/32 1500x30

共用 dual

9999

140@15KT

30.30

RJCO 152300Z 14015KT 9999 FEW050 BKN230 08/02 Q1026

RJCJ / Chitose

RJCC_APP

TOWER

36R/18L 3000x60
36L/18R 2700x45

自衛隊 military

過去5時間に発表されたMETARがありません。

RJCC / NewChitose
VMC

RJCC_APP

TOWER

01L/19R 3000x60
01R/19L 3000x60

民間 civil

9999

150@14KT

30.30

RJCC 152300Z 15014KT 9999 FEW015 BKN/// 08/02 Q1026

RJCB / Obihiro
VMC

NO RADAR

TOWER

35/17 2500x45

民間 civil

9999

310@5KT

30.30

RJCB 152300Z 31005KT 280V340 9999 FEW040 BKN/// 05/M03 Q1026

RJEO / Okushiri

NO RADAR

REMOTE

12/30 1500x45

民間 civil

過去5時間に発表されたMETARがありません。

RJCH / Hakodate
VMC

RJCH_APP

TOWER

12/30 3000x45

民間 civil

9999

110@11KT

30.27

RJCH 152300Z 11011KT 9999 FEW025 SCT/// 11/00 Q1025

RJSA / Aomori
VMC

NO RADAR

TOWER

24/06 3000x60

民間 civil

9999

350@4KT

30.21

RJSA 152300Z 35004KT 320V020 9999 FEW050 BKN/// 08/01 Q1023

RJSO / Ominato

RJSM_APP

TOWER

04/22 600x45

自衛隊 military

過去5時間に発表されたMETARがありません。

RJSM / Misawa
VMC

RJSM_APP

TOWER

10/28 3050x45

共用 dual

9999

120@10KT

30.30

RJSM 152300Z 12010KT 9999 SCT230 10/M00 Q1026

RJSH / Hachinohe

RJSM_APP

TOWER

25/07 2250x45

自衛隊 military

過去5時間に発表されたMETARがありません。

RJSK / Akita
VMC

NO RADAR

TOWER

10/28 2500x60

民間 civil

9999

140@8KT

30.24

RJSK 152300Z 14008KT 090V190 9999 FEW020 SCT/// 09/01 Q1024

RJSI / Hanamaki
VMC

NO RADAR

RADIO

20/02 2500x45

民間 civil

9999

000@2KT

30.30

RJSI 152300Z VRB02KT 9999 FEW040 SCT050 06/01 Q1026

RJSR / Odate-Noshiro
VMC

NO RADAR

REMOTE

11/29 2000x45

民間 civil

9999

000@2KT

30.24

RJSR 152300Z VRB02KT CAVOK 07/01 Q1024

RJTG Tokyo Control

RJSY / Shonai
VMC

NO RADAR

RADIO

09/27 2000x45

民間 civil

9999

100@16KT

30.21

RJSY 152300Z 10016KT CAVOK 12/03 Q1023

RJSC / Yamagata
VMC

NO RADAR

RADIO

01/19 2000x45

民間 civil

9999

180@4KT

30.30

RJSC 152300Z 18004KT 130V210 9999 FEW050 08/01 Q1026

RJST / Matsushima

RJSS_APP

TOWER

07/25 2071x46
15/33 1500x46

自衛隊 military

過去5時間に発表されたMETARがありません。

RJSS / Sendai
VMC

RJSS_APP

TOWER

27/09 3000x45
12/30 1200x45

民間 civil

9999

000@2KT

30.32

RJSS 152300Z VRB02KT 9999 FEW040 BKN/// 11/02 Q1027

RJSD / Sado

NO RADAR

REMOTE

10/28 890x25

民間 civil

過去5時間に発表されたMETARがありません。

RJSN / Niigata
VMC

RJSN_APP

TOWER

10/28 2500x45
04/22 1314x45

民間 civil

9999

140@10KT

30.18

RJSN 152300Z 14010KT CAVOK 15/04 Q1022

RJSF / Fukushima
VMC

NO RADAR

RADIO

01/19 2500x60

民間 civil

9999

190@10KT

30.30

RJSF 152300Z 19010KT 160V220 9999 FEW030 BKN035 11/03 Q1026

RJAH / Ibaraki/Hyakuri
VMC

RJAH_APP

TOWER

03L/21R 2700x45
03R/21L 2700x45

共用 dual

9999

360@3KT

30.32

RJAH 152300Z 36003KT 320V030 9999 FEW040 BKN060 11/05 Q1027

RJTT / Tokyo
VMC

RJTT_APP

TOWER

34LR/16RL 3000x60
04/22&05/23 2500x60

民間 civil

9999

010@6KT

30.32

RJTT 152300Z 01006KT 9999 FEW030 BKN060 12/06 Q1027 NOSIG RMK 1CU030 7SC060 A3034

RJAA / Narita
VMC

RJTT_APP

TOWER

34L/16R 4000x60
34R/16L 2500x60

民間 civil

9999

100@7KT

30.32

RJAA 152300Z 10007KT 070V130 9999 FEW030 BKN060 15/07 Q1027 NOSIG RMK 1CU030 6SC060 A3033

RJTL / Shimofusa

RJTT_APP

TOWER

19/01 2250x45

自衛隊 military

過去5時間に発表されたMETARがありません。

RJTE / Tateyama

RJTT_APP

TOWER

09/27 300x45

自衛隊 military

過去5時間に発表されたMETARがありません。

RJTO / Oshima
VMC

NO RADAR

RADIO

03/21 1800x45

民間 civil

9999

030@12KT

30.30

RJTO 152300Z 03012KT 9999 -SHRA FEW015 SCT035 BKN050 13/09 Q1026

RJTK / Kisarazu

NO RADAR

TOWER

02/20 1830x45

自衛隊 military

過去5時間に発表されたMETARがありません。

RJAN / Niijima

NO RADAR

REMOTE

11/29 800x25

自衛隊 military

過去5時間に発表されたMETARがありません。

RJAZ / Kozushima

NO RADAR

REMOTE

11/29 800x25

民間 civil

過去5時間に発表されたMETARがありません。

RJTH / Hachijojima

NO RADAR

RADIO

26/08 2000x45

民間 civil

過去5時間に発表されたMETARがありません。

RJTF / Chofu

NO RADAR

Flight Service

35/17 800x30

民間 civil

過去5時間に発表されたMETARがありません。

RJTQ / Miyake

NO RADAR

REMOTE

02/20 1200x30

民間 civil

過去5時間に発表されたMETARがありません。

RJTC / Tachikawa

NO RADAR

TOWER

01/19 900x45

自衛隊 military

過去5時間に発表されたMETARがありません。

RJTA / Atsugi

NO RADAR

TOWER

01/19 2438x45

自衛隊 military

過去5時間に発表されたMETARがありません。

RJTU / Utsunomiya

RJTY_APP

TOWER

01/19 1700x45

自衛隊 military

過去5時間に発表されたMETARがありません。

RJTJ / Iruma

RJTY_APP

TOWER

17/35 2000x45

自衛隊 military

過去5時間に発表されたMETARがありません。

RJTY / Yokota
VMC

RJTY_APP

TOWER

18/36 3353x60

自衛隊 military

9999

290@4KT

30.38

RJTY 152256Z AUTO 29004KT 10SM OVC060 11/04 A3038 RMK AO2 SLP294 T01070037 FZRANO $

RJAF / Matsumoto

NO RADAR

RADIO

18/36 2000x45

民間 civil

過去5時間に発表されたMETARがありません。

RJNS / Shizuoka
VMC

NO RADAR

RADIO

30/12 2500x60

民間 civil

9999

050@5KT

30.27

RJNS 152300Z 05005KT 340V110 9999 FEW020 SCT035 BKN090 13/05 Q1025

RJNY / Yaizu-Shizuhama
VMC

NO RADAR

TOWER

27/09 1500x45

自衛隊 military

9999

020@6KT

30.24

RJNY 151914Z 02006KT 9999 FEW020 BKN060 12/04 Q1024 RMK 1CU020 5SC060 A3026

RJNH / Hamamatsu

RJNH_APP

TOWER

09/27 2550x60

自衛隊 military

過去5時間に発表されたMETARがありません。

RJGG / Chubu
VMC

RJGG_APP

TOWER

36/18 3500x60

民間 civil

9999

030@3KT

30.24

RJGG 152300Z 03003KT 340V070 9999 -SHRA FEW030 BKN060 14/07 Q1024 NOSIG

RJNA / Nagoya

RJGG_APP

TOWER

34/16 2740x45

民間 civil

過去5時間に発表されたMETARがありません。

RJNG / Gifu
VMC

RJGG_APP

TOWER

28/10 2710x46

自衛隊 military

9999

020@4KT

30.24

RJNG 152237Z 02004KT 9999 -SHRA FEW030 BKN045 12/08 Q1024 RMK 2CU030 7SC045 A3026

RJOE / Akeno
VMC

RJOE_APP

TOWER

13/31 500x30
04/22 500x30

自衛隊 military

9999

110@6KT

30.21

RJOE 152222Z 11006KT 9999 FEW015 SCT035 BKN060 15/10 Q1023 RMK 2CU015 3SC035 5SC060 A3023

RJNK / Komatsu
VMC

RJNK_APP

TOWER

06/24 2700x45

共用 dual

9999

110@3KT

30.15

RJNK 152300Z 11003KT 060V140 9999 FEW030 BKN060 BKN100 11/07 Q1021

RJNW / Noto
VMC

NO RADAR

RADIO

25/07 2000x45

民間 civil

9999

170@5KT

30.15

RJNW 152300Z 17005KT 130V190 CAVOK 12/06 Q1021

RJNT / Toyama
VMC

NO RADAR

TOWER

20/02 2000x45

民間 civil

9999

180@10KT

30.15

RJNT 152300Z 18010KT 130V210 9999 FEW050 SCT100 17/04 Q1021

RJNF / Fukui

NO RADAR

REMOTE

18/36 1200x30

民間 civil

過去5時間に発表されたMETARがありません。

RJBD / Nanki-Shirahama
VMC

NO RADAR

RADIO

15/33 2000x45

民間 civil

9999

090@8KT

30.18

RJBD 152300Z 09008KT 050V150 9999 -SHRA FEW015 SCT040 BKN060 15/10 Q1022

RJOY / Yao
VMC

RJBB_APP

TOWER

27/09 1490x45
13/31 1200x30

民間 civil

9999

050@5KT

30.18

RJOY 152300Z 05005KT 020V090 9999 -RA FEW025 BKN060 15/10 Q1022

RJOO / Osaka
VMC

RJBB_APP

TOWER

32L/14R 3000x60
32R/14L 1830x45

民間 civil

9999

060@11KT

30.18

RJOO 152300Z 06011KT 9999 VCSH FEW025 BKN060 15/10 Q1022 RMK 1CU025 5SC060 A3019

RJOB / Okayama
VMC

RJBB_APP

TOWER

07/25 3000x45

民間 civil

9999

090@10KT

30.12

RJOB 152300Z 09010KT 9999 FEW010 BKN015 12/09 Q1020

RJBB / Kansai
VMC

RJBB_APP

TOWER

06R/24L 3500x60
06L/24R 4000x60

民間 civil

9999

280@2KT

30.18

RJBB 152300Z 28002KT 9999 VCSH FEW015 SCT040 BKN060 14/10 Q1022 NOSIG

RJBE / Kobe
VMC

RJBB_APP

TOWER

09/27 2500x60

民間 civil

9999

050@10KT

30.18

RJBE 152300Z 05010KT 9999 FEW020 BKN050 15/10 Q1022

RJBT / Tajima

NO RADAR

REMOTE

01/19 1200x30

民間 civil

過去5時間に発表されたMETARがありません。

RJOR / Tottori
VMC

NO RADAR

RADIO

10/28 2000x45

民間 civil

9999

160@10KT

30.09

RJOR 152300Z 16010KT 130V220 9999 FEW035 BKN/// 17/09 Q1019

RJNO / Oki

NO RADAR

REMOTE

07/25 2000x45

民間 civil

過去5時間に発表されたMETARがありません。

RJOH / Miho
VMC

RJOH_APP

TOWER

25/07 2500x45

共用 dual

9999

240@3KT

30.09

RJOH 152300Z 24003KT 200V270 9999 FEW050 12/08 Q1019

RJOC / Izumo
VMC

RJOH_APP

RADIO

07/25 2000x45

共用 dual

9999

000@2KT

30.09

RJOC 152300Z VRB02KT 9999 FEW030 13/05 Q1019

RJDG Fukuoka Control

RJOT / Takamatsu
VMC

RJBB_APP

TOWER

26/08 2500x60

民間 civil

9999

060@3KT

30.12

RJOT 152300Z 06003KT 350V150 9999 FEW015 16/11 Q1020

RJOK / Kochi
VMC

RJBB_APP

TOWER

32/14 2500x45

民間 civil

9999

350@6KT

30.15

RJOK 152300Z 35006KT 9999 FEW020 SCT025 FEW025CB BKN035 15/12 Q1021

RJOS / Tokushima
VMC

RJOS_APP

TOWER

29/11 2500x45

共用 dual

9999

180@12KT

30.15

RJOS 152300Z 18012KT 9999 FEW008 SCT025 BKN040 16/12 Q1021

RJOA / Hiroshima
VMC

RJOA_APP

TOWER

10/28 3000x60

民間 civil

9999

110@4KT

30.12

RJOA 152300Z 11004KT 9999 FEW030 13/02 Q1020

RJBH / Hiroshimanishi

NO RADAR

Flight Service

04/22 1800x45

民間 civil

過去5時間に発表されたMETARがありません。

RJOI / Iwakuni
VMC

RJOI_APP

TOWER

02/20 2440x60

共用 dual

9999

360@3KT

30.14

RJOI 152255Z 36003KT 9999 SCT060 BKN085 12/05 A3014 RMK SLP206 T01220050

RJOM / Matsuyama
VMC

RJOI_APP

TOWER

14/32 2500x45

民間 civil

9999

340@6KT

30.09

RJOM 152300Z 34006KT 9999 FEW030 SCT080 14/07 Q1019

RJOZ / Ozuki

RJFZ_APP

TOWER

35/17 1201x61
12/30 899x46

自衛隊 military

過去5時間に発表されたMETARがありません。

RJOF / Hofu
VMC

RJFZ_APP

TOWER

30/12 1180x60
01/19 1480x45

自衛隊 military

9999

030@6KT

30.06

RJOF 151926Z 03006KT 9999 FEW045 BKN080 09/06 Q1018 RMK 1SC045 5AC080 A3007

RJDC / Yamaguchi-Ube
VMC

RJFZ_APP

RADIO

07/25 2500x45

民間 civil

9999

090@15KT

30.09

RJDC 152300Z 09015KT 9999 FEW025 BKN050 14/10 Q1019

RJFR / Kitakyushu
VMC

RJFZ_APP

TOWER

18/36 2500x60

民間 civil

9999

110@10KT

30.09

RJFR 152300Z 11010KT 9999 FEW015 BKN050 14/10 Q1019

RJFZ / Tsuiki

RJFZ_APP

TOWER

25/07 2399x46

自衛隊 military

過去5時間に発表されたMETARがありません。

RJOW / Iwami
VMC

NO RADAR

REMOTE

11/29 2000x45

民間 civil

9999

160@12KT

30.03

RJOW 152300Z 16012KT 9999 FEW020 BKN080 17/10 Q1017

RJDT / Tsushima
VMC

NO RADAR

REMOTE

32/14 1900x45

民間 civil

9999

000@2KT

30.06

RJDT 152300Z VRB02KT 9999 SCT025 BKN030 BKN035 14/09 Q1018

RJFF / Fukuoka
VMC

RJFF_APP

TOWER

16/34 2800x60

民間 civil

9999

160@11KT

30.06

RJFF 152300Z 16011KT 9999 -RA FEW035 BKN050 BKN070 14/07 Q1018 NOSIG RMK 1CU035 6SC050 7AC070 A3006

RJFS / Saga
VMC

RJFF_APP

RADIO

29/11 2000x45

民間 civil

9999

000@2KT

30.06

RJFS 152300Z VRB02KT 9999 FEW030 BKN050 12/09 Q1018

RJFA / Ashiya

RJFF_APP

TOWER

12/30 1640x46

自衛隊 military

過去5時間に発表されたMETARがありません。

RJDB / Iki

RJFF_APP

REMOTE

20/02 1200x30

民間 civil

過去5時間に発表されたMETARがありません。

RJFO / Oita
VMC

RJFO_APP

TOWER

01/19 3000x45

民間 civil

9999

180@4KT

30.09

RJFO 152300Z 18004KT 9999 FEW020 BKN025 BKN090 14/09 Q1019

RJFU / Nagasaki
VMC

RJFU_APP

TOWER

32/14 3000x60

民間 civil

9999

150@8KT

30.06

RJFU 152300Z 15008KT 9999 FEW040 BKN050 15/11 Q1018

RJDU / Omura

RJFU_APP

TOWER

18/36 1200x30

自衛隊 military

過去5時間に発表されたMETARがありません。

RJFE / Fukue
IMC

NO RADAR

RADIO

03/21 2000x45

民間 civil

4000

160@6KT

30.03

RJFE 152300Z 16006KT 120V200 4000 -SHRA BR FEW010 SCT015 BKN020 15/14 Q1017

RJDO / Ojika

NO RADAR

REMOTE

03/21 800x30

民間 civil

過去5時間に発表されたMETARがありません。

RJDK / Kamigoto

NO RADAR

REMOTE

17/35 800x30

民間 civil

過去5時間に発表されたMETARがありません。

RJDA / Amakusa

NO RADAR

Flight Service

31/13 1000x30

民間 civil

過去5時間に発表されたMETARがありません。

RJFT / Kumamoto
VMC

RJFT_APP

TOWER

07/25 3000x45

民間 civil

9999

000@2KT

30.06

RJFT 152300Z VRB02KT 9999 VCSH FEW030 BKN045 14/08 Q1018

RJFN / Nyutabaru

RJFM_APP

TOWER

28/10 2701x46

自衛隊 military

過去5時間に発表されたMETARがありません。

RJFM / Miyazaki
VMC

RJFM_APP

TOWER

27/09 2500x45

民間 civil

9999

280@6KT

30.09

RJFM 152300Z 28006KT 9999 FEW030 BKN080 BKN100 15/08 Q1019

RJFK / Kagoshima
VMC

RJFK_APP

TOWER

34/16 3000x45

民間 civil

9999

080@4KT

30.09

RJFK 152300Z 08004KT 9999 -RA FEW040 BKN050 OVC100 13/09 Q1019 RMK 1CU040 7SC050 8AS100 A3009 VOLCANIC ASH CLOUD S

RJFY / Kanoya

RJFY_APP

TOWER

26L/08R 2250x45
26R/08L 1200x40

自衛隊 military

過去5時間に発表されたMETARがありません。

RJFG / Tanegashima

NO RADAR

RADIO

31/13 2000x45

民間 civil

過去5時間に発表されたMETARがありません。

RJFC / Yakushima

NO RADAR

REMOTE

14/32 1500x45

民間 civil

過去5時間に発表されたMETARがありません。

RJBG Kobe Control

ROAH / Naha
VMC

ROAH_APP

TOWER

36/18 3000x45

共用 dual

9999

110@4KT

29.97

ROAH 152300Z 11004KT 9999 -RA FEW030 BKN060 BKN070 21/19 Q1015 RMK 1CU030 5SC060 6AS070 A2999

RORA / Aguni

ROAH_APP

REMOTE

01/19 800x25

民間 civil

過去5時間に発表されたMETARがありません。

ROKJ / Kumejima

ROAH_APP

REMOTE

03/21 2000x45

民間 civil

過去5時間に発表されたMETARがありません。

RODN / Kadena
VMC

ROAH_APP

TOWER

05L/23R 3688x91
05R/23L 3688x61

自衛隊 military

9999

120@5KT

29.99

RODN 152256Z AUTO 12005KT 10SM BKN055 21/20 A2999 RMK AO2 SLP162 T02140195 $

ROTM / Futenma
VMC

ROAH_APP

TOWER

06/24 2740x45

自衛隊 military

9000

120@5KT

30.01

ROTM 152256Z COR 12005KT 9000 -SHRA BR FEW020 BKN050 OVC070 21/19 A3001 RMK SHRAB53 SLP148 P0000 T02110189

RORS / Shimojishima
VMC

RORS_APP

TOWER

17/35 3000x60

民間 civil

7000

140@11KT

29.94

RORS 152300Z 14011KT 7000 -SHRA BKN012 BKN020 23/22 Q1014

ROMY / Miyako
VMC

RORS_APP

TOWER

04/22 2000x45

民間 civil

9999

130@9KT

29.94

ROMY 152300Z 13009KT 9999 -SHRA FEW012 BKN018 BKN045 22/22 Q1014

ROIG / New Ishigaki
VMC

RORS_APP

TOWER

22/04 2000x45

民間 civil

9999

250@3KT

29.91

ROIG 152300Z 25003KT 9999 FEW008 SCT014 FEW020TCU BKN029 23/23 Q1013

RORT / Tarama

RORS_APP

REMOTE

36/18 1500x45

民間 civil

過去5時間に発表されたMETARがありません。

RJKA / Amami
VMC

NO RADAR

RADIO

03/21 2000x45

民間 civil

9999

150@9KT

30.00

RJKA 152300Z 15009KT 9999 FEW015 SCT050 BKN100 22/18 Q1016

RJKI / Kikai
VMC

NO RADAR

REMOTE

07/25 1200x30

民間 civil

9999

140@5KT

30.00

RJKI 152300Z AUTO 14005KT 100V170 9999 BKN031 OVC036 20/19 Q1016

RJKN / Tokunoshima

NO RADAR

REMOTE

19/01 2000x45

民間 civil

過去5時間に発表されたMETARがありません。

RJKB / Okierabu

NO RADAR

REMOTE

04/22 1350x45

民間 civil

過去5時間に発表されたMETARがありません。

RORY / Yoron
VMC

NO RADAR

REMOTE

32/14 1320x30

民間 civil

9999

130@9KT

29.97

RORY 152300Z AUTO 13009KT 9999 NSC 21/18 Q1015

RORK / Kitadaito
VMC

NO RADAR

REMOTE

03/21 1500x45

民間 civil

9999

110@9KT

30.00

RORK 152300Z AUTO 11009KT 9999 NSC 23/18 Q1016

ROMD / Minami-daito
VMC

NO RADAR

REMOTE

02/20 1500x45

民間 civil

9999

000@2KT

30.00

ROMD 152300Z AUTO VRB02KT 9999 NSC 22/18 Q1016

ROYN / Yonaguni
VMC

NO RADAR

REMOTE

26/08 2000x45

民間 civil

9999

350@12KT

29.91

ROYN 152300Z AUTO 35012KT 9999 FEW013 BKN027 OVC042 24/22 Q1013

RORH / Hateruma

NO RADAR

REMOTE

02/20 800x25

民間 civil

過去5時間に発表されたMETARがありません。

ROKR / Kerama

NO RADAR

REMOTE

02/20 800x25

民間 civil

過去5時間に発表されたMETARがありません。